Terminal Aerodrome Forecast
Issued by NWS

Home | Current Version | Previous Version | Text Only | Print | Product List | Glossary On
Versions: 1 2 3 4 5 6 7 8 9 10 11 12 13 14
000
FTAK31 PAFA 291138
TAFAOR
TAF
PAOR 291138Z 2912/3012 10003KT P6SM SCT100
     FM291800 26007KT P6SM VCSH BKN060 BKN100=

USA.gov is the U.S. government's official web portal to all federal, state and local government web resources and services.